Wetterdaten: Woche 21.05.12 - 27.05.12 (KW21)
Datum Zeit Temperatur Luftfeuchte Luftdruck Niederschlag Windrichtung Sonnenschein Solar Wind
21.05.2012 00:00 15,3 C 65 % 998,4 hPa 0,0 l/m S 0,00 h 0 W/m 3,3 km/h (1 Bft)
21.05.2012 01:00 14,4 C 69 % 997,9 hPa 0,0 l/m S 0,00 h 0 W/m 0,8 km/h (0 Bft)
21.05.2012 02:00 13,9 C 71 % 997,4 hPa 0,0 l/m S 0,00 h 0 W/m 1,1 km/h (0 Bft)
21.05.2012 03:00 13,5 C 74 % 997,0 hPa 0,0 l/m N 0,00 h 0 W/m 0,3 km/h (0 Bft)
21.05.2012 04:00 12,5 C 79 % 996,1 hPa 0,0 l/m N 0,00 h 0 W/m 0,7 km/h (0 Bft)
21.05.2012 05:00 12,0 C 81 % 995,9 hPa 0,0 l/m N 0,00 h 5 W/m 0,0 km/h (0 Bft)
21.05.2012 06:00 12,0 C 84 % 995,6 hPa 0,0 l/m N 0,00 h 26 W/m 0,1 km/h (0 Bft)
21.05.2012 07:00 12,8 C 82 % 995,6 hPa 0,0 l/m N 0,00 h 66 W/m 1,7 km/h (1 Bft)
21.05.2012 08:00 15,0 C 73 % 995,4 hPa 0,0 l/m S 0,42 h 268 W/m 2,7 km/h (1 Bft)
21.05.2012 09:00 16,9 C 67 % 995,1 hPa 0,0 l/m SO 0,42 h 307 W/m 5,9 km/h (2 Bft)
21.05.2012 10:00 18,1 C 64 % 994,9 hPa 0,0 l/m S-SW 0,67 h 424 W/m 5,3 km/h (1 Bft)
21.05.2012 11:00 19,0 C 60 % 994,8 hPa 0,0 l/m S-SO 0,17 h 307 W/m 4,9 km/h (1 Bft)
21.05.2012 12:00 20,4 C 53 % 994,7 hPa 0,0 l/m O-NO 0,75 h 549 W/m 9,1 km/h (2 Bft)
21.05.2012 13:00 20,9 C 52 % 994,5 hPa 0,0 l/m O 0,42 h 510 W/m 11,2 km/h (2 Bft)
21.05.2012 14:00 21,9 C 46 % 994,4 hPa 0,0 l/m O-NO 0,33 h 379 W/m 12,1 km/h (2 Bft)
21.05.2012 15:00 21,6 C 48 % 994,5 hPa 0,0 l/m NO 0,25 h 358 W/m 12,4 km/h (3 Bft)
21.05.2012 16:00 22,4 C 47 % 994,4 hPa 0,0 l/m O-NO 0,42 h 387 W/m 10,9 km/h (2 Bft)
21.05.2012 17:00 22,5 C 44 % 994,0 hPa 0,0 l/m O-NO 0,08 h 181 W/m 5,1 km/h (1 Bft)
21.05.2012 18:00 19,7 C 62 % 993,6 hPa 2,8 l/m W-NW 0,17 h 66 W/m 9,2 km/h (2 Bft)
21.05.2012 19:00 15,4 C 87 % 994,7 hPa 6,0 l/m W 0,00 h 7 W/m 21,4 km/h (4 Bft)
21.05.2012 20:00 13,4 C 94 % 995,5 hPa 17,4 l/m W 0,00 h 0 W/m 27,4 km/h (4 Bft)
21.05.2012 21:00 13,1 C 95 % 996,2 hPa 0,0 l/m W-SW 0,00 h 0 W/m 18,2 km/h (3 Bft)
21.05.2012 22:00 12,7 C 95 % 996,8 hPa 0,4 l/m W-NW 0,00 h 0 W/m 16,6 km/h (3 Bft)
21.05.2012 23:00 12,6 C 96 % 997,6 hPa 0,0 l/m SW 0,00 h 0 W/m 9,7 km/h (2 Bft)
22.05.2012 00:00 12,1 C 97 % 998,0 hPa 0,0 l/m S-SW 0,00 h 0 W/m 12,6 km/h (3 Bft)
22.05.2012 01:00 11,6 C 98 % 998,5 hPa 0,0 l/m SW 0,00 h 0 W/m 12,1 km/h (2 Bft)
22.05.2012 02:00 10,9 C 98 % 998,6 hPa 0,0 l/m SW 0,00 h 0 W/m 6,3 km/h (2 Bft)
22.05.2012 03:00 10,9 C 98 % 999,0 hPa 0,0 l/m SW 0,00 h 0 W/m 7,0 km/h (2 Bft)
22.05.2012 04:00 10,8 C 98 % 999,4 hPa 0,0 l/m N 0,00 h 0 W/m 1,2 km/h (1 Bft)
22.05.2012 05:00 11,0 C 98 % 1000,1 hPa 0,0 l/m SW 0,00 h 5 W/m 6,4 km/h (2 Bft)
22.05.2012 06:00 11,6 C 97 % 1000,6 hPa 0,0 l/m W-SW 0,00 h 19 W/m 3,5 km/h (1 Bft)
22.05.2012 07:00 12,2 C 97 % 1001,0 hPa 0,0 l/m SW 0,25 h 137 W/m 9,3 km/h (2 Bft)
22.05.2012 08:00 13,4 C 93 % 1001,3 hPa 0,0 l/m SW 0,33 h 270 W/m 12,1 km/h (2 Bft)
22.05.2012 09:00 14,3 C 87 % 1001,9 hPa 0,0 l/m W-SW 0,17 h 320 W/m 10,9 km/h (2 Bft)
22.05.2012 10:00 15,4 C 81 % 1002,6 hPa 0,0 l/m W-SW 0,67 h 646 W/m 8,2 km/h (2 Bft)
22.05.2012 11:00 16,0 C 75 % 1003,3 hPa 0,0 l/m W-NW 0,08 h 220 W/m 7,6 km/h (2 Bft)
22.05.2012 12:00 17,1 C 71 % 1004,2 hPa 0,0 l/m NW 0,42 h 574 W/m 6,8 km/h (2 Bft)
22.05.2012 13:00 19,0 C 62 % 1004,8 hPa 0,0 l/m O-SO 0,50 h 599 W/m 7,8 km/h (2 Bft)
22.05.2012 14:00 19,4 C 60 % 1005,2 hPa 0,0 l/m N-NO 0,75 h 675 W/m 8,8 km/h (2 Bft)
22.05.2012 15:00 20,8 C 54 % 1005,7 hPa 0,0 l/m N-NO 1,00 h 759 W/m 11,1 km/h (2 Bft)
22.05.2012 16:00 21,0 C 53 % 1006,4 hPa 0,0 l/m O-NO 0,33 h 367 W/m 9,7 km/h (2 Bft)
22.05.2012 17:00 20,7 C 55 % 1006,7 hPa 0,0 l/m NO 0,00 h 123 W/m 9,8 km/h (2 Bft)
22.05.2012 18:00 20,7 C 52 % 1007,1 hPa 0,0 l/m NO 0,00 h 92 W/m 9,1 km/h (2 Bft)
22.05.2012 19:00 19,8 C 56 % 1008,0 hPa 0,0 l/m NO 0,00 h 19 W/m 3,7 km/h (1 Bft)
22.05.2012 20:00 17,5 C 77 % 1009,1 hPa 0,6 l/m NO 0,00 h 5 W/m 5,1 km/h (1 Bft)
22.05.2012 21:00 15,3 C 90 % 1009,8 hPa 0,0 l/m SW 0,00 h 0 W/m 5,2 km/h (1 Bft)
22.05.2012 22:00 15,0 C 89 % 1010,6 hPa 0,0 l/m SW 0,00 h 0 W/m 3,3 km/h (1 Bft)
22.05.2012 23:00 14,8 C 89 % 1011,1 hPa 0,0 l/m N 0,00 h 0 W/m 1,3 km/h (1 Bft)
23.05.2012 00:00 14,2 C 93 % 1011,8 hPa 0,0 l/m N 0,00 h 0 W/m 0,5 km/h (0 Bft)
23.05.2012 01:00 14,3 C 92 % 1012,3 hPa 0,2 l/m SW 0,00 h 0 W/m 4,4 km/h (1 Bft)
23.05.2012 02:00 14,1 C 94 % 1012,3 hPa 0,4 l/m SW 0,00 h 0 W/m 4,3 km/h (1 Bft)
23.05.2012 03:00 13,5 C 96 % 1012,6 hPa 0,0 l/m N 0,00 h 0 W/m 1,2 km/h (1 Bft)
23.05.2012 04:00 13,3 C 97 % 1012,8 hPa 0,0 l/m S-SW 0,00 h 0 W/m 6,0 km/h (2 Bft)
23.05.2012 05:00 13,4 C 98 % 1013,3 hPa 0,0 l/m S-SW 0,00 h 0 W/m 3,5 km/h (1 Bft)
23.05.2012 06:00 13,6 C 98 % 1013,9 hPa 0,0 l/m N 0,00 h 18 W/m 1,5 km/h (1 Bft)
23.05.2012 07:00 14,1 C 99 % 1014,4 hPa 0,0 l/m S-SW 0,00 h 23 W/m 3,3 km/h (1 Bft)
23.05.2012 08:00 14,4 C 99 % 1015,0 hPa 2,2 l/m S-SW 0,00 h 65 W/m 2,7 km/h (1 Bft)
23.05.2012 09:00 15,4 C 98 % 1015,7 hPa 0,0 l/m S-SW 0,00 h 144 W/m 2,5 km/h (1 Bft)
23.05.2012 10:00 17,0 C 93 % 1016,1 hPa 0,0 l/m S 0,08 h 309 W/m 2,9 km/h (1 Bft)
23.05.2012 11:00 19,0 C 83 % 1016,4 hPa 0,0 l/m S 0,17 h 417 W/m 5,7 km/h (1 Bft)
23.05.2012 12:00 19,6 C 79 % 1016,6 hPa 0,0 l/m W-SW 0,33 h 444 W/m 5,8 km/h (1 Bft)
23.05.2012 13:00 21,6 C 75 % 1016,7 hPa 0,0 l/m SW 0,83 h 795 W/m 11,7 km/h (2 Bft)
23.05.2012 14:00 22,7 C 73 % 1016,6 hPa 0,0 l/m SW 0,92 h 821 W/m 17,8 km/h (3 Bft)
23.05.2012 15:00 22,6 C 72 % 1016,8 hPa 0,2 l/m S-SW 0,75 h 614 W/m 15,6 km/h (3 Bft)
23.05.2012 16:00 21,7 C 78 % 1016,8 hPa 0,0 l/m W-SW 0,75 h 524 W/m 12,6 km/h (3 Bft)
23.05.2012 17:00 22,8 C 69 % 1016,7 hPa 0,0 l/m S-SW 0,75 h 388 W/m 9,8 km/h (2 Bft)
23.05.2012 18:00 21,5 C 75 % 1017,0 hPa 0,2 l/m W 0,58 h 238 W/m 16,2 km/h (3 Bft)
23.05.2012 19:00 17,5 C 86 % 1018,0 hPa 9,8 l/m NW 0,00 h 27 W/m 11,7 km/h (2 Bft)
23.05.2012 20:00 15,1 C 93 % 1018,2 hPa 0,2 l/m NW 0,00 h 14 W/m 2,8 km/h (1 Bft)
23.05.2012 21:00 14,7 C 97 % 1018,8 hPa 0,0 l/m N 0,00 h 0 W/m 1,1 km/h (0 Bft)
23.05.2012 22:00 14,4 C 98 % 1019,3 hPa 0,0 l/m N 0,00 h 0 W/m 0,4 km/h (0 Bft)
23.05.2012 23:00 13,9 C 98 % 1019,3 hPa 0,0 l/m N 0,00 h 0 W/m 0,0 km/h (0 Bft)
24.05.2012 00:00 13,5 C 98 % 1019,7 hPa 0,0 l/m SO 0,00 h 0 W/m 2,9 km/h (1 Bft)
24.05.2012 01:00 13,9 C 99 % 1020,1 hPa 0,0 l/m SW 0,00 h 0 W/m 7,2 km/h (2 Bft)
24.05.2012 02:00 14,5 C 99 % 1019,8 hPa 0,0 l/m SW 0,00 h 0 W/m 5,3 km/h (1 Bft)
24.05.2012 03:00 13,7 C 99 % 1019,9 hPa 0,0 l/m N 0,00 h 0 W/m 0,7 km/h (0 Bft)
24.05.2012 04:00 13,3 C 99 % 1019,9 hPa 0,0 l/m N 0,00 h 0 W/m 0,4 km/h (0 Bft)
24.05.2012 05:00 13,3 C 99 % 1020,1 hPa 0,0 l/m N 0,00 h 5 W/m 0,0 km/h (0 Bft)
24.05.2012 06:00 13,6 C 100 % 1020,5 hPa 0,0 l/m SW 0,00 h 16 W/m 3,9 km/h (1 Bft)
24.05.2012 07:00 14,2 C 100 % 1020,7 hPa 0,0 l/m SW 0,00 h 42 W/m 2,8 km/h (1 Bft)
24.05.2012 08:00 14,7 C 100 % 1021,0 hPa 0,0 l/m S-SO 0,00 h 68 W/m 4,4 km/h (1 Bft)
24.05.2012 09:00 15,1 C 100 % 1021,3 hPa 0,0 l/m W-SW 0,00 h 170 W/m 7,5 km/h (2 Bft)
24.05.2012 10:00 17,2 C 93 % 1021,1 hPa 0,0 l/m SW 0,67 h 578 W/m 5,2 km/h (1 Bft)
24.05.2012 11:00 18,9 C 83 % 1021,1 hPa 0,0 l/m W-NW 0,08 h 285 W/m 5,7 km/h (1 Bft)
24.05.2012 12:00 20,4 C 79 % 1020,7 hPa 0,0 l/m O 0,58 h 629 W/m 6,8 km/h (2 Bft)
24.05.2012 13:00 22,6 C 68 % 1020,0 hPa 0,0 l/m O-SO 1,00 h 878 W/m 12,6 km/h (3 Bft)
24.05.2012 14:00 24,6 C 55 % 1019,3 hPa 0,0 l/m NO 1,00 h 875 W/m 16,5 km/h (3 Bft)
24.05.2012 15:00 25,5 C 49 % 1018,9 hPa 0,0 l/m O-NO 1,00 h 829 W/m 14,6 km/h (3 Bft)
24.05.2012 16:00 24,6 C 53 % 1018,8 hPa 1,0 l/m O 0,25 h 206 W/m 15,7 km/h (3 Bft)
24.05.2012 17:00 19,2 C 79 % 1019,1 hPa 0,0 l/m O-NO 0,00 h 98 W/m 10,3 km/h (2 Bft)
24.05.2012 18:00 19,0 C 84 % 1018,7 hPa 0,0 l/m N 0,00 h 95 W/m 4,7 km/h (1 Bft)
24.05.2012 19:00 18,9 C 82 % 1018,7 hPa 0,0 l/m NW 0,50 h 143 W/m 6,1 km/h (2 Bft)
24.05.2012 20:00 19,2 C 80 % 1019,1 hPa 0,0 l/m N-NW 0,33 h 41 W/m 4,5 km/h (1 Bft)
24.05.2012 21:00 18,4 C 76 % 1019,5 hPa 0,0 l/m NO 0,00 h 5 W/m 9,6 km/h (2 Bft)
24.05.2012 22:00 17,7 C 78 % 1019,5 hPa 0,0 l/m N 0,00 h 0 W/m 5,2 km/h (1 Bft)
24.05.2012 23:00 15,8 C 86 % 1019,6 hPa 0,0 l/m N 0,00 h 0 W/m 0,7 km/h (0 Bft)
25.05.2012 00:00 14,8 C 91 % 1019,6 hPa 0,0 l/m N 0,00 h 0 W/m 4,0 km/h (1 Bft)
25.05.2012 01:00 15,1 C 87 % 1019,3 hPa 0,0 l/m N-NO 0,00 h 0 W/m 7,5 km/h (2 Bft)
25.05.2012 02:00 13,9 C 88 % 1019,0 hPa 0,0 l/m NO 0,00 h 0 W/m 5,3 km/h (1 Bft)
25.05.2012 03:00 13,0 C 85 % 1018,8 hPa 0,0 l/m N-NO 0,00 h 0 W/m 6,3 km/h (2 Bft)
25.05.2012 04:00 12,7 C 81 % 1018,5 hPa 0,0 l/m N-NO 0,00 h 0 W/m 7,9 km/h (2 Bft)
25.05.2012 05:00 11,6 C 83 % 1018,7 hPa 0,0 l/m N 0,00 h 9 W/m 6,8 km/h (2 Bft)
25.05.2012 06:00 11,5 C 82 % 1018,9 hPa 0,2 l/m N 0,00 h 57 W/m 9,0 km/h (2 Bft)
25.05.2012 07:00 13,1 C 76 % 1019,1 hPa 0,0 l/m NO 1,00 h 212 W/m 13,7 km/h (3 Bft)
25.05.2012 08:00 14,6 C 72 % 1019,3 hPa 0,0 l/m NO 1,00 h 383 W/m 17,7 km/h (3 Bft)
25.05.2012 09:00 16,6 C 65 % 1019,2 hPa 0,0 l/m O 1,00 h 544 W/m 19,8 km/h (4 Bft)
25.05.2012 10:00 18,1 C 57 % 1019,1 hPa 0,0 l/m O 1,00 h 694 W/m 25,7 km/h (4 Bft)
25.05.2012 11:00 19,2 C 50 % 1018,7 hPa 0,0 l/m O-SO 1,00 h 774 W/m 27,1 km/h (4 Bft)
25.05.2012 12:00 20,1 C 44 % 1018,6 hPa 0,0 l/m O 1,00 h 869 W/m 27,8 km/h (4 Bft)
25.05.2012 13:00 20,8 C 42 % 1018,3 hPa 0,0 l/m O-NO 1,00 h 924 W/m 26,7 km/h (4 Bft)
25.05.2012 14:00 21,6 C 38 % 1017,5 hPa 0,0 l/m O-SO 1,00 h 905 W/m 27,8 km/h (4 Bft)
25.05.2012 15:00 22,0 C 36 % 1017,4 hPa 0,0 l/m O 1,00 h 833 W/m 28,0 km/h (4 Bft)
25.05.2012 16:00 22,1 C 33 % 1017,1 hPa 0,0 l/m O-NO 1,00 h 725 W/m 28,3 km/h (4 Bft)
25.05.2012 17:00 22,0 C 34 % 1016,8 hPa 0,0 l/m O-SO 1,00 h 572 W/m 26,3 km/h (4 Bft)
25.05.2012 18:00 21,4 C 36 % 1016,5 hPa 0,0 l/m O-SO 1,00 h 393 W/m 24,9 km/h (4 Bft)
25.05.2012 19:00 20,2 C 37 % 1016,5 hPa 0,0 l/m O-SO 1,00 h 210 W/m 22,1 km/h (4 Bft)
25.05.2012 20:00 18,7 C 41 % 1016,6 hPa 0,0 l/m O 0,17 h 28 W/m 12,9 km/h (3 Bft)
25.05.2012 21:00 16,7 C 49 % 1016,6 hPa 0,0 l/m O 0,00 h 5 W/m 5,9 km/h (2 Bft)
25.05.2012 22:00 14,6 C 58 % 1016,8 hPa 0,0 l/m N 0,00 h 0 W/m 3,7 km/h (1 Bft)
25.05.2012 23:00 14,0 C 61 % 1016,8 hPa 0,0 l/m NO 0,00 h 0 W/m 6,8 km/h (2 Bft)
26.05.2012 00:00 13,8 C 61 % 1016,6 hPa 0,0 l/m NO 0,00 h 0 W/m 5,7 km/h (1 Bft)
26.05.2012 01:00 13,5 C 60 % 1016,3 hPa 0,0 l/m O-NO 0,00 h 0 W/m 9,5 km/h (2 Bft)
26.05.2012 02:00 12,6 C 62 % 1016,1 hPa 0,0 l/m O-NO 0,00 h 0 W/m 9,5 km/h (2 Bft)
26.05.2012 03:00 11,6 C 66 % 1015,8 hPa 0,0 l/m NO 0,00 h 0 W/m 7,2 km/h (2 Bft)
26.05.2012 04:00 10,6 C 70 % 1015,8 hPa 0,0 l/m NO 0,00 h 0 W/m 7,4 km/h (2 Bft)
26.05.2012 05:00 9,5 C 75 % 1016,1 hPa 0,0 l/m N-NO 0,00 h 8 W/m 10,5 km/h (2 Bft)
26.05.2012 06:00 9,6 C 76 % 1016,3 hPa 0,0 l/m N-NO 0,08 h 60 W/m 9,8 km/h (2 Bft)
26.05.2012 07:00 11,2 C 71 % 1016,6 hPa 0,0 l/m N-NO 1,00 h 217 W/m 11,2 km/h (2 Bft)
26.05.2012 08:00 13,3 C 66 % 1017,0 hPa 0,0 l/m NO 1,00 h 392 W/m 14,0 km/h (3 Bft)
26.05.2012 09:00 15,7 C 58 % 1017,0 hPa 0,0 l/m O 1,00 h 562 W/m 17,2 km/h (3 Bft)
26.05.2012 10:00 17,9 C 48 % 1016,9 hPa 0,0 l/m NO 1,00 h 714 W/m 23,3 km/h (4 Bft)
26.05.2012 11:00 19,0 C 41 % 1016,8 hPa 0,0 l/m O-NO 1,00 h 836 W/m 27,8 km/h (4 Bft)
26.05.2012 12:00 19,8 C 38 % 1016,7 hPa 0,0 l/m O-NO 1,00 h 908 W/m 25,7 km/h (4 Bft)
26.05.2012 13:00 20,7 C 37 % 1016,5 hPa 0,0 l/m NO 1,00 h 935 W/m 24,3 km/h (4 Bft)
26.05.2012 14:00 21,3 C 34 % 1016,3 hPa 0,0 l/m O-NO 1,00 h 908 W/m 25,9 km/h (4 Bft)
26.05.2012 15:00 21,6 C 31 % 1016,3 hPa 0,0 l/m O-NO 1,00 h 832 W/m 24,2 km/h (4 Bft)
26.05.2012 16:00 21,8 C 32 % 1016,1 hPa 0,0 l/m O-NO 1,00 h 714 W/m 22,9 km/h (4 Bft)
26.05.2012 17:00 21,4 C 33 % 1015,9 hPa 0,0 l/m O 1,00 h 563 W/m 23,6 km/h (4 Bft)
26.05.2012 18:00 20,8 C 34 % 1015,8 hPa 0,0 l/m O 1,00 h 390 W/m 23,7 km/h (4 Bft)
26.05.2012 19:00 19,5 C 37 % 1015,9 hPa 0,0 l/m O 0,58 h 161 W/m 17,7 km/h (3 Bft)
26.05.2012 20:00 17,8 C 43 % 1016,3 hPa 0,0 l/m O 0,25 h 30 W/m 10,2 km/h (2 Bft)
26.05.2012 21:00 15,5 C 51 % 1016,3 hPa 0,0 l/m N 0,00 h 5 W/m 2,3 km/h (1 Bft)
26.05.2012 22:00 12,7 C 65 % 1016,5 hPa 0,0 l/m N 0,00 h 0 W/m 0,3 km/h (0 Bft)
26.05.2012 23:00 11,3 C 69 % 1016,5 hPa 0,0 l/m N 0,00 h 0 W/m 0,1 km/h (0 Bft)
27.05.2012 00:00 10,5 C 74 % 1016,3 hPa 0,0 l/m N 0,00 h 0 W/m 0,4 km/h (0 Bft)
27.05.2012 01:00 9,9 C 75 % 1016,1 hPa 0,0 l/m N 0,00 h 0 W/m 1,3 km/h (1 Bft)
27.05.2012 02:00 10,0 C 72 % 1016,0 hPa 0,0 l/m O 0,00 h 0 W/m 3,9 km/h (1 Bft)
27.05.2012 03:00 9,7 C 72 % 1015,8 hPa 0,0 l/m N-NW 0,00 h 0 W/m 5,9 km/h (2 Bft)
27.05.2012 04:00 9,4 C 74 % 1015,7 hPa 0,0 l/m N-NW 0,00 h 0 W/m 4,0 km/h (1 Bft)
27.05.2012 05:00 9,2 C 77 % 1015,9 hPa 0,0 l/m N-NW 0,00 h 9 W/m 4,4 km/h (1 Bft)
27.05.2012 06:00 9,8 C 77 % 1016,1 hPa 0,0 l/m N 0,00 h 34 W/m 5,1 km/h (1 Bft)
27.05.2012 07:00 10,7 C 75 % 1016,5 hPa 0,0 l/m N 0,00 h 74 W/m 4,7 km/h (1 Bft)
27.05.2012 08:00 11,9 C 70 % 1016,6 hPa 0,0 l/m N-NO 0,00 h 157 W/m 7,6 km/h (2 Bft)
27.05.2012 09:00 13,8 C 64 % 1016,5 hPa 0,0 l/m O-NO 0,00 h 231 W/m 8,5 km/h (2 Bft)
27.05.2012 10:00 16,8 C 55 % 1016,3 hPa 0,0 l/m O-NO 0,92 h 536 W/m 13,6 km/h (3 Bft)
27.05.2012 11:00 19,1 C 43 % 1016,0 hPa 0,0 l/m NO 0,58 h 511 W/m 20,2 km/h (4 Bft)
27.05.2012 12:00 19,2 C 40 % 1016,0 hPa 0,0 l/m O-NO 0,33 h 380 W/m 17,8 km/h (3 Bft)
27.05.2012 13:00 18,6 C 45 % 1015,9 hPa 0,0 l/m O-NO 0,00 h 215 W/m 14,6 km/h (3 Bft)
27.05.2012 14:00 19,6 C 44 % 1015,3 hPa 0,0 l/m NO 0,08 h 326 W/m 13,6 km/h (3 Bft)
27.05.2012 15:00 19,5 C 43 % 1015,1 hPa 0,0 l/m O-NO 0,00 h 191 W/m 14,0 km/h (3 Bft)
27.05.2012 16:00 18,8 C 48 % 1014,9 hPa 0,0 l/m N-NO 0,00 h 121 W/m 11,0 km/h (2 Bft)
27.05.2012 17:00 18,1 C 52 % 1014,6 hPa 0,0 l/m N-NO 0,00 h 87 W/m 9,5 km/h (2 Bft)
27.05.2012 18:00 18,1 C 52 % 1014,3 hPa 0,0 l/m N-NO 0,00 h 76 W/m 9,9 km/h (2 Bft)
27.05.2012 19:00 17,6 C 51 % 1014,2 hPa 0,0 l/m O-NO 0,00 h 40 W/m 16,5 km/h (3 Bft)
27.05.2012 20:00 16,9 C 53 % 1014,4 hPa 0,0 l/m NO 0,00 h 19 W/m 9,9 km/h (2 Bft)
27.05.2012 21:00 15,8 C 58 % 1014,7 hPa 0,0 l/m N-NO 0,00 h 5 W/m 6,7 km/h (2 Bft)
27.05.2012 22:00 14,6 C 63 % 1014,7 hPa 0,0 l/m N 0,00 h 0 W/m 3,7 km/h (1 Bft)
27.05.2012 23:00 13,9 C 66 % 1014,8 hPa 0,0 l/m N 0,00 h 0 W/m 6,5 km/h (2 Bft)
Min-Datum _ 27.05.12 26.05.12 21.05.12 - - - - 21.05.12
_ Min-Zeit 05:50 15:40 18:45 - - - - 01:05
Minimum _ 9,0 C 29 % 993,4 hPa - - - - 0,0 km/h (0 Bft)
Max-Datum _ 24.05.12 24.05.12 24.05.12 21.05.12 - 21.05.12 22.05.12 21.05.12
_ Max-Zeit 16:15 06:00 08:50 20:00 - 08:25 12:25 20:10
Maximum _ 26,7 C 100 % 1021,5 hPa 17,4 l/m - 0,08 h 1021 W/m 37,0 km/h
W-SW (5 Bft)
Durchschnitt _ 16,3 C 71 % 1012,1 hPa #41,6 l/m O-NO #47:10 h 332 W/m 9,7 km/h (2 Bft)